sensor_id;sensor_type;location;lat;lon;timestamp;temperature;humidity
19755;DHT22;10036;47.812;9.274;2022-08-19T00:01:15;18.00;99.90
19755;DHT22;10036;47.812;9.274;2022-08-19T00:03:42;18.00;99.90
19755;DHT22;10036;47.812;9.274;2022-08-19T00:06:09;18.00;99.90
19755;DHT22;10036;47.812;9.274;2022-08-19T00:08:36;18.00;99.90
19755;DHT22;10036;47.812;9.274;2022-08-19T00:11:05;18.00;99.90
19755;DHT22;10036;47.812;9.274;2022-08-19T00:13:32;18.00;99.90
19755;DHT22;10036;47.812;9.274;2022-08-19T00:15:59;18.00;99.90
19755;DHT22;10036;47.812;9.274;2022-08-19T00:18:27;18.00;99.90
19755;DHT22;10036;47.812;9.274;2022-08-19T00:20:54;18.00;99.90
19755;DHT22;10036;47.812;9.274;2022-08-19T00:23:21;18.00;99.90
19755;DHT22;10036;47.812;9.274;2022-08-19T00:25:48;18.00;99.90
19755;DHT22;10036;47.812;9.274;2022-08-19T00:28:16;18.00;99.90
19755;DHT22;10036;47.812;9.274;2022-08-19T00:30:43;17.90;99.90
19755;DHT22;10036;47.812;9.274;2022-08-19T00:33:10;17.90;99.90
19755;DHT22;10036;47.812;9.274;2022-08-19T00:35:37;17.90;99.90
19755;DHT22;10036;47.812;9.274;2022-08-19T00:38:04;17.90;99.90
19755;DHT22;10036;47.812;9.274;2022-08-19T00:40:32;17.90;99.90
19755;DHT22;10036;47.812;9.274;2022-08-19T00:42:59;17.90;99.90
19755;DHT22;10036;47.812;9.274;2022-08-19T00:45:28;18.00;99.90
19755;DHT22;10036;47.812;9.274;2022-08-19T00:47:57;17.90;99.90
19755;DHT22;10036;47.812;9.274;2022-08-19T00:50:29;17.90;99.90
19755;DHT22;10036;47.812;9.274;2022-08-19T00:52:56;18.00;99.90
19755;DHT22;10036;47.812;9.274;2022-08-19T00:55:26;17.90;99.90
19755;DHT22;10036;47.812;9.274;2022-08-19T00:57:57;18.00;99.90
19755;DHT22;10036;47.812;9.274;2022-08-19T01:00:28;18.10;99.90
19755;DHT22;10036;47.812;9.274;2022-08-19T01:02:55;18.20;99.90
19755;DHT22;10036;47.812;9.274;2022-08-19T01:05:25;18.30;99.90
19755;DHT22;10036;47.812;9.274;2022-08-19T01:07:54;18.30;99.90
19755;DHT22;10036;47.812;9.274;2022-08-19T01:10:25;18.30;99.90
19755;DHT22;10036;47.812;9.274;2022-08-19T01:12:52;18.30;99.90
19755;DHT22;10036;47.812;9.274;2022-08-19T01:15:23;18.20;99.90
19755;DHT22;10036;47.812;9.274;2022-08-19T01:17:53;18.30;99.90
19755;DHT22;10036;47.812;9.274;2022-08-19T01:20:23;18.40;99.90
19755;DHT22;10036;47.812;9.274;2022-08-19T01:22:53;18.30;99.90
19755;DHT22;10036;47.812;9.274;2022-08-19T01:25:24;18.30;99.90
19755;DHT22;10036;47.812;9.274;2022-08-19T01:27:52;18.20;99.90
19755;DHT22;10036;47.812;9.274;2022-08-19T01:30:24;18.10;99.90
19755;DHT22;10036;47.812;9.274;2022-08-19T01:32:51;18.10;99.90
19755;DHT22;10036;47.812;9.274;2022-08-19T01:35:19;18.30;99.90
19755;DHT22;10036;47.812;9.274;2022-08-19T01:37:53;18.30;99.90
19755;DHT22;10036;47.812;9.274;2022-08-19T01:40:22;18.30;99.90
19755;DHT22;10036;47.812;9.274;2022-08-19T01:42:52;18.30;99.90
19755;DHT22;10036;47.812;9.274;2022-08-19T01:45:21;18.40;99.90
19755;DHT22;10036;47.812;9.274;2022-08-19T01:47:48;18.50;99.90
19755;DHT22;10036;47.812;9.274;2022-08-19T01:50:15;18.40;99.90
19755;DHT22;10036;47.812;9.274;2022-08-19T01:52:43;18.50;99.90
19755;DHT22;10036;47.812;9.274;2022-08-19T01:55:13;18.40;99.90
19755;DHT22;10036;47.812;9.274;2022-08-19T01:57:44;18.40;99.90
19755;DHT22;10036;47.812;9.274;2022-08-19T02:00:16;18.50;99.90
19755;DHT22;10036;47.812;9.274;2022-08-19T02:02:43;18.50;99.90
19755;DHT22;10036;47.812;9.274;2022-08-19T02:05:11;18.40;99.90
19755;DHT22;10036;47.812;9.274;2022-08-19T02:07:39;18.50;99.90
19755;DHT22;10036;47.812;9.274;2022-08-19T02:10:10;18.40;99.90
19755;DHT22;10036;47.812;9.274;2022-08-19T02:12:39;18.40;99.90
19755;DHT22;10036;47.812;9.274;2022-08-19T02:15:06;18.30;99.90
19755;DHT22;10036;47.812;9.274;2022-08-19T02:17:33;18.20;99.90
19755;DHT22;10036;47.812;9.274;2022-08-19T02:20:01;18.10;99.90
19755;DHT22;10036;47.812;9.274;2022-08-19T02:22:27;18.10;99.90
19755;DHT22;10036;47.812;9.274;2022-08-19T02:24:55;18.10;99.90
19755;DHT22;10036;47.812;9.274;2022-08-19T02:27:22;18.10;99.90
19755;DHT22;10036;47.812;9.274;2022-08-19T02:29:51;18.10;99.90
19755;DHT22;10036;47.812;9.274;2022-08-19T02:32:19;18.20;99.90
19755;DHT22;10036;47.812;9.274;2022-08-19T02:34:47;18.20;99.90
19755;DHT22;10036;47.812;9.274;2022-08-19T02:37:14;18.20;99.90
19755;DHT22;10036;47.812;9.274;2022-08-19T02:39:55;18.30;99.90
19755;DHT22;10036;47.812;9.274;2022-08-19T02:42:22;18.30;99.90
19755;DHT22;10036;47.812;9.274;2022-08-19T02:44:51;18.20;99.90
19755;DHT22;10036;47.812;9.274;2022-08-19T02:47:18;18.20;99.90
19755;DHT22;10036;47.812;9.274;2022-08-19T02:49:45;18.20;99.90
19755;DHT22;10036;47.812;9.274;2022-08-19T02:52:15;18.10;99.90
19755;DHT22;10036;47.812;9.274;2022-08-19T02:54:42;18.20;99.90
19755;DHT22;10036;47.812;9.274;2022-08-19T02:57:09;18.20;99.90
19755;DHT22;10036;47.812;9.274;2022-08-19T02:59:36;18.30;99.90
19755;DHT22;10036;47.812;9.274;2022-08-19T03:02:04;18.30;99.90
19755;DHT22;10036;47.812;9.274;2022-08-19T03:04:31;18.30;99.90
19755;DHT22;10036;47.812;9.274;2022-08-19T03:06:58;18.40;99.90
19755;DHT22;10036;47.812;9.274;2022-08-19T03:09:25;18.30;99.90
19755;DHT22;10036;47.812;9.274;2022-08-19T03:11:52;18.30;99.90
19755;DHT22;10036;47.812;9.274;2022-08-19T03:14:19;18.30;99.90
19755;DHT22;10036;47.812;9.274;2022-08-19T03:16:48;18.20;99.90
19755;DHT22;10036;47.812;9.274;2022-08-19T03:19:18;18.30;99.90
19755;DHT22;10036;47.812;9.274;2022-08-19T03:21:47;18.30;99.90
19755;DHT22;10036;47.812;9.274;2022-08-19T03:24:15;18.20;99.90
19755;DHT22;10036;47.812;9.274;2022-08-19T03:26:44;18.20;99.90
19755;DHT22;10036;47.812;9.274;2022-08-19T03:29:11;18.10;99.90
19755;DHT22;10036;47.812;9.274;2022-08-19T03:31:40;18.20;99.90
19755;DHT22;10036;47.812;9.274;2022-08-19T03:34:08;18.10;99.90
19755;DHT22;10036;47.812;9.274;2022-08-19T03:36:38;18.10;99.90
19755;DHT22;10036;47.812;9.274;2022-08-19T03:39:05;18.20;99.90
19755;DHT22;10036;47.812;9.274;2022-08-19T03:41:37;18.20;99.90
19755;DHT22;10036;47.812;9.274;2022-08-19T03:44:04;18.20;99.90
19755;DHT22;10036;47.812;9.274;2022-08-19T03:46:33;18.20;99.90
19755;DHT22;10036;47.812;9.274;2022-08-19T03:49:02;18.20;99.90
19755;DHT22;10036;47.812;9.274;2022-08-19T03:51:34;18.30;99.90
19755;DHT22;10036;47.812;9.274;2022-08-19T03:54:05;18.30;99.90
19755;DHT22;10036;47.812;9.274;2022-08-19T03:56:33;18.30;99.90
19755;DHT22;10036;47.812;9.274;2022-08-19T03:59:01;18.30;99.90
19755;DHT22;10036;47.812;9.274;2022-08-19T04:01:28;18.30;99.90
19755;DHT22;10036;47.812;9.274;2022-08-19T04:03:56;18.30;99.90
19755;DHT22;10036;47.812;9.274;2022-08-19T04:06:25;18.20;99.90
19755;DHT22;10036;47.812;9.274;2022-08-19T04:08:53;18.20;99.90
19755;DHT22;10036;47.812;9.274;2022-08-19T04:11:23;18.20;99.90
19755;DHT22;10036;47.812;9.274;2022-08-19T04:13:51;18.20;99.90
19755;DHT22;10036;47.812;9.274;2022-08-19T04:16:19;18.20;99.90
19755;DHT22;10036;47.812;9.274;2022-08-19T04:18:47;18.20;99.90
19755;DHT22;10036;47.812;9.274;2022-08-19T04:21:16;18.20;99.90
19755;DHT22;10036;47.812;9.274;2022-08-19T04:23:44;18.10;99.90
19755;DHT22;10036;47.812;9.274;2022-08-19T04:26:13;18.10;99.90
19755;DHT22;10036;47.812;9.274;2022-08-19T04:28:42;18.10;99.90
19755;DHT22;10036;47.812;9.274;2022-08-19T04:31:13;18.10;99.90
19755;DHT22;10036;47.812;9.274;2022-08-19T04:33:41;18.10;99.90
19755;DHT22;10036;47.812;9.274;2022-08-19T04:36:08;18.10;99.90
19755;DHT22;10036;47.812;9.274;2022-08-19T04:38:41;18.10;99.90
19755;DHT22;10036;47.812;9.274;2022-08-19T04:41:08;18.10;99.90
19755;DHT22;10036;47.812;9.274;2022-08-19T04:43:54;18.20;99.90
19755;DHT22;10036;47.812;9.274;2022-08-19T04:46:20;18.20;99.90
19755;DHT22;10036;47.812;9.274;2022-08-19T04:48:47;18.20;99.90
19755;DHT22;10036;47.812;9.274;2022-08-19T04:51:15;18.20;99.90
19755;DHT22;10036;47.812;9.274;2022-08-19T04:53:42;18.30;99.90
19755;DHT22;10036;47.812;9.274;2022-08-19T04:56:12;18.40;99.90
19755;DHT22;10036;47.812;9.274;2022-08-19T04:58:41;18.40;99.90
19755;DHT22;10036;47.812;9.274;2022-08-19T05:01:12;18.40;99.90
19755;DHT22;10036;47.812;9.274;2022-08-19T05:03:39;18.50;99.90
19755;DHT22;10036;47.812;9.274;2022-08-19T05:06:07;18.60;99.90
19755;DHT22;10036;47.812;9.274;2022-08-19T05:08:37;18.60;99.90
19755;DHT22;10036;47.812;9.274;2022-08-19T05:11:11;18.50;99.90
19755;DHT22;10036;47.812;9.274;2022-08-19T05:13:39;18.60;99.90
19755;DHT22;10036;47.812;9.274;2022-08-19T05:16:06;18.60;99.90
19755;DHT22;10036;47.812;9.274;2022-08-19T05:18:34;18.50;99.90
19755;DHT22;10036;47.812;9.274;2022-08-19T05:21:19;18.50;99.90
19755;DHT22;10036;47.812;9.274;2022-08-19T05:24:05;18.50;99.90
19755;DHT22;10036;47.812;9.274;2022-08-19T05:26:34;18.40;99.90
19755;DHT22;10036;47.812;9.274;2022-08-19T05:29:01;18.40;99.90
19755;DHT22;10036;47.812;9.274;2022-08-19T05:31:29;18.30;99.90
19755;DHT22;10036;47.812;9.274;2022-08-19T05:33:57;18.40;99.90
19755;DHT22;10036;47.812;9.274;2022-08-19T05:36:25;18.40;99.90
19755;DHT22;10036;47.812;9.274;2022-08-19T05:38:52;18.40;99.90
19755;DHT22;10036;47.812;9.274;2022-08-19T05:41:20;18.40;99.90
19755;DHT22;10036;47.812;9.274;2022-08-19T05:43:48;18.50;99.90
19755;DHT22;10036;47.812;9.274;2022-08-19T05:46:17;18.50;99.90
19755;DHT22;10036;47.812;9.274;2022-08-19T05:48:44;18.40;99.90
19755;DHT22;10036;47.812;9.274;2022-08-19T05:51:13;18.40;99.90
19755;DHT22;10036;47.812;9.274;2022-08-19T05:53:40;18.40;99.90
19755;DHT22;10036;47.812;9.274;2022-08-19T05:56:08;18.40;99.90
19755;DHT22;10036;47.812;9.274;2022-08-19T05:58:37;18.50;99.90
19755;DHT22;10036;47.812;9.274;2022-08-19T06:01:09;18.50;99.90
19755;DHT22;10036;47.812;9.274;2022-08-19T06:03:37;18.50;99.90
19755;DHT22;10036;47.812;9.274;2022-08-19T06:06:05;18.50;99.90
19755;DHT22;10036;47.812;9.274;2022-08-19T06:08:35;18.50;99.90
19755;DHT22;10036;47.812;9.274;2022-08-19T06:11:15;18.40;99.90
19755;DHT22;10036;47.812;9.274;2022-08-19T06:13:43;18.40;99.90
19755;DHT22;10036;47.812;9.274;2022-08-19T06:16:10;18.30;99.90
19755;DHT22;10036;47.812;9.274;2022-08-19T06:18:37;18.30;99.90
19755;DHT22;10036;47.812;9.274;2022-08-19T06:21:04;18.30;99.90
19755;DHT22;10036;47.812;9.274;2022-08-19T06:23:31;18.30;99.90
19755;DHT22;10036;47.812;9.274;2022-08-19T06:26:00;18.30;99.90
19755;DHT22;10036;47.812;9.274;2022-08-19T06:28:26;18.30;99.90
19755;DHT22;10036;47.812;9.274;2022-08-19T06:30:53;18.30;99.90
19755;DHT22;10036;47.812;9.274;2022-08-19T06:33:20;18.30;99.90
19755;DHT22;10036;47.812;9.274;2022-08-19T06:35:47;18.30;99.90
19755;DHT22;10036;47.812;9.274;2022-08-19T06:38:14;18.40;99.90
19755;DHT22;10036;47.812;9.274;2022-08-19T06:40:41;18.40;99.90
19755;DHT22;10036;47.812;9.274;2022-08-19T06:43:09;18.40;99.90
19755;DHT22;10036;47.812;9.274;2022-08-19T06:45:37;18.40;99.90
19755;DHT22;10036;47.812;9.274;2022-08-19T06:48:04;18.30;99.90
19755;DHT22;10036;47.812;9.274;2022-08-19T06:50:32;18.30;99.90
19755;DHT22;10036;47.812;9.274;2022-08-19T06:52:59;18.30;99.90
19755;DHT22;10036;47.812;9.274;2022-08-19T06:55:26;18.30;99.90
19755;DHT22;10036;47.812;9.274;2022-08-19T06:57:54;18.30;99.90
19755;DHT22;10036;47.812;9.274;2022-08-19T07:00:23;18.30;99.90
19755;DHT22;10036;47.812;9.274;2022-08-19T07:02:49;18.40;99.90
19755;DHT22;10036;47.812;9.274;2022-08-19T07:05:16;18.40;99.90
19755;DHT22;10036;47.812;9.274;2022-08-19T07:07:43;18.40;99.90
19755;DHT22;10036;47.812;9.274;2022-08-19T07:10:10;18.50;99.90
19755;DHT22;10036;47.812;9.274;2022-08-19T07:12:37;18.50;99.90
19755;DHT22;10036;47.812;9.274;2022-08-19T07:15:07;18.60;99.90
19755;DHT22;10036;47.812;9.274;2022-08-19T07:17:38;18.50;99.90
19755;DHT22;10036;47.812;9.274;2022-08-19T07:20:06;18.50;99.90
19755;DHT22;10036;47.812;9.274;2022-08-19T07:22:34;18.50;99.90
19755;DHT22;10036;47.812;9.274;2022-08-19T07:25:01;18.50;99.90
19755;DHT22;10036;47.812;9.274;2022-08-19T07:27:29;18.50;99.90
19755;DHT22;10036;47.812;9.274;2022-08-19T07:29:56;18.50;99.90
19755;DHT22;10036;47.812;9.274;2022-08-19T07:32:23;18.50;99.90
19755;DHT22;10036;47.812;9.274;2022-08-19T07:34:52;18.60;99.90
19755;DHT22;10036;47.812;9.274;2022-08-19T07:37:20;18.60;99.90
19755;DHT22;10036;47.812;9.274;2022-08-19T07:39:47;18.60;99.90
19755;DHT22;10036;47.812;9.274;2022-08-19T07:42:14;18.60;99.90
19755;DHT22;10036;47.812;9.274;2022-08-19T07:44:42;18.60;99.90
19755;DHT22;10036;47.812;9.274;2022-08-19T07:47:09;18.70;99.90
19755;DHT22;10036;47.812;9.274;2022-08-19T07:49:36;18.70;99.90
19755;DHT22;10036;47.812;9.274;2022-08-19T07:52:07;18.70;99.90
19755;DHT22;10036;47.812;9.274;2022-08-19T07:54:36;18.70;99.90
19755;DHT22;10036;47.812;9.274;2022-08-19T07:57:04;18.60;99.90
19755;DHT22;10036;47.812;9.274;2022-08-19T07:59:32;18.60;99.90
19755;DHT22;10036;47.812;9.274;2022-08-19T08:01:59;18.60;99.90
19755;DHT22;10036;47.812;9.274;2022-08-19T08:04:26;18.60;99.90
19755;DHT22;10036;47.812;9.274;2022-08-19T08:07:12;18.60;99.90
19755;DHT22;10036;47.812;9.274;2022-08-19T08:09:56;18.50;99.90
19755;DHT22;10036;47.812;9.274;2022-08-19T08:12:27;18.50;99.90
19755;DHT22;10036;47.812;9.274;2022-08-19T08:14:58;18.60;99.90
19755;DHT22;10036;47.812;9.274;2022-08-19T08:17:28;18.60;99.90
19755;DHT22;10036;47.812;9.274;2022-08-19T08:19:55;18.60;99.90
19755;DHT22;10036;47.812;9.274;2022-08-19T08:22:24;18.60;99.90
19755;DHT22;10036;47.812;9.274;2022-08-19T08:25:11;18.60;99.90
19755;DHT22;10036;47.812;9.274;2022-08-19T08:27:39;18.50;99.90
19755;DHT22;10036;47.812;9.274;2022-08-19T08:30:07;18.50;99.90
19755;DHT22;10036;47.812;9.274;2022-08-19T08:32:35;18.40;99.90
19755;DHT22;10036;47.812;9.274;2022-08-19T08:35:03;18.40;99.90
19755;DHT22;10036;47.812;9.274;2022-08-19T08:37:34;18.40;99.90
19755;DHT22;10036;47.812;9.274;2022-08-19T08:40:03;18.50;99.90
19755;DHT22;10036;47.812;9.274;2022-08-19T08:42:35;18.40;99.90
19755;DHT22;10036;47.812;9.274;2022-08-19T08:45:05;18.40;99.90
19755;DHT22;10036;47.812;9.274;2022-08-19T08:47:38;18.50;99.90
19755;DHT22;10036;47.812;9.274;2022-08-19T08:50:10;18.40;99.90
19755;DHT22;10036;47.812;9.274;2022-08-19T08:52:44;18.40;99.90
19755;DHT22;10036;47.812;9.274;2022-08-19T08:55:15;18.50;99.90
19755;DHT22;10036;47.812;9.274;2022-08-19T08:57:51;18.40;99.90
19755;DHT22;10036;47.812;9.274;2022-08-19T09:00:23;18.50;99.90
19755;DHT22;10036;47.812;9.274;2022-08-19T09:02:52;18.60;99.90
19755;DHT22;10036;47.812;9.274;2022-08-19T09:05:19;18.60;99.90
19755;DHT22;10036;47.812;9.274;2022-08-19T09:07:59;18.60;99.90
19755;DHT22;10036;47.812;9.274;2022-08-19T09:10:32;18.60;99.90
19755;DHT22;10036;47.812;9.274;2022-08-19T09:13:11;18.70;99.90
19755;DHT22;10036;47.812;9.274;2022-08-19T09:15:42;18.70;99.90
19755;DHT22;10036;47.812;9.274;2022-08-19T09:18:11;18.70;99.90
19755;DHT22;10036;47.812;9.274;2022-08-19T09:20:37;18.70;99.90
19755;DHT22;10036;47.812;9.274;2022-08-19T09:23:06;18.60;99.90
19755;DHT22;10036;47.812;9.274;2022-08-19T09:25:34;18.60;99.90
19755;DHT22;10036;47.812;9.274;2022-08-19T09:28:01;18.50;99.90
19755;DHT22;10036;47.812;9.274;2022-08-19T09:30:31;18.60;99.90
19755;DHT22;10036;47.812;9.274;2022-08-19T09:32:58;18.50;99.90
19755;DHT22;10036;47.812;9.274;2022-08-19T09:35:28;18.50;99.90
19755;DHT22;10036;47.812;9.274;2022-08-19T09:37:56;18.40;99.90
19755;DHT22;10036;47.812;9.274;2022-08-19T09:40:25;18.40;99.90
19755;DHT22;10036;47.812;9.274;2022-08-19T09:42:52;18.40;99.90
19755;DHT22;10036;47.812;9.274;2022-08-19T09:45:21;18.40;99.90
19755;DHT22;10036;47.812;9.274;2022-08-19T09:47:49;18.40;99.90
19755;DHT22;10036;47.812;9.274;2022-08-19T09:50:16;18.40;99.90
19755;DHT22;10036;47.812;9.274;2022-08-19T09:52:43;18.30;99.90
19755;DHT22;10036;47.812;9.274;2022-08-19T09:55:11;18.30;99.90
19755;DHT22;10036;47.812;9.274;2022-08-19T09:57:39;18.30;99.90
19755;DHT22;10036;47.812;9.274;2022-08-19T10:00:08;18.30;99.90
19755;DHT22;10036;47.812;9.274;2022-08-19T10:02:36;18.30;99.90
19755;DHT22;10036;47.812;9.274;2022-08-19T10:05:04;18.30;99.90
19755;DHT22;10036;47.812;9.274;2022-08-19T10:07:48;18.30;99.90
19755;DHT22;10036;47.812;9.274;2022-08-19T10:10:16;18.30;99.90
19755;DHT22;10036;47.812;9.274;2022-08-19T10:12:44;18.30;99.90
19755;DHT22;10036;47.812;9.274;2022-08-19T10:15:12;18.30;99.90
19755;DHT22;10036;47.812;9.274;2022-08-19T10:17:40;18.30;99.90
19755;DHT22;10036;47.812;9.274;2022-08-19T10:20:07;18.20;99.90
19755;DHT22;10036;47.812;9.274;2022-08-19T10:22:34;18.20;99.90
19755;DHT22;10036;47.812;9.274;2022-08-19T10:25:04;18.30;99.90
19755;DHT22;10036;47.812;9.274;2022-08-19T10:27:31;18.30;99.90
19755;DHT22;10036;47.812;9.274;2022-08-19T10:30:03;18.40;99.90
19755;DHT22;10036;47.812;9.274;2022-08-19T10:32:30;18.40;99.90
19755;DHT22;10036;47.812;9.274;2022-08-19T10:34:57;18.50;99.90
19755;DHT22;10036;47.812;9.274;2022-08-19T10:37:26;18.50;99.90
19755;DHT22;10036;47.812;9.274;2022-08-19T10:39:53;18.40;99.90
19755;DHT22;10036;47.812;9.274;2022-08-19T10:42:20;18.40;99.90
19755;DHT22;10036;47.812;9.274;2022-08-19T10:44:49;18.40;99.90
19755;DHT22;10036;47.812;9.274;2022-08-19T10:47:18;18.40;99.90
19755;DHT22;10036;47.812;9.274;2022-08-19T10:49:45;18.40;99.90
19755;DHT22;10036;47.812;9.274;2022-08-19T10:52:29;18.40;99.90
19755;DHT22;10036;47.812;9.274;2022-08-19T10:55:03;18.40;99.90
19755;DHT22;10036;47.812;9.274;2022-08-19T10:57:48;18.50;99.90
19755;DHT22;10036;47.812;9.274;2022-08-19T11:00:15;18.40;99.90
19755;DHT22;10036;47.812;9.274;2022-08-19T11:02:43;18.50;99.90
19755;DHT22;10036;47.812;9.274;2022-08-19T11:05:11;18.40;99.90
19755;DHT22;10036;47.812;9.274;2022-08-19T11:07:39;18.40;99.90
19755;DHT22;10036;47.812;9.274;2022-08-19T11:10:11;18.40;99.90
19755;DHT22;10036;47.812;9.274;2022-08-19T11:12:39;18.40;99.90
19755;DHT22;10036;47.812;9.274;2022-08-19T11:15:08;18.40;99.90
19755;DHT22;10036;47.812;9.274;2022-08-19T11:17:36;18.40;99.90
19755;DHT22;10036;47.812;9.274;2022-08-19T11:20:08;18.40;99.90
19755;DHT22;10036;47.812;9.274;2022-08-19T11:22:35;18.50;99.90
19755;DHT22;10036;47.812;9.274;2022-08-19T11:25:03;18.50;99.90
19755;DHT22;10036;47.812;9.274;2022-08-19T11:27:30;18.50;99.90
19755;DHT22;10036;47.812;9.274;2022-08-19T11:29:57;18.50;99.90
19755;DHT22;10036;47.812;9.274;2022-08-19T11:32:24;18.50;99.90
19755;DHT22;10036;47.812;9.274;2022-08-19T11:34:51;18.50;99.90
19755;DHT22;10036;47.812;9.274;2022-08-19T11:37:19;18.50;99.90
19755;DHT22;10036;47.812;9.274;2022-08-19T11:39:46;18.50;99.90
19755;DHT22;10036;47.812;9.274;2022-08-19T11:42:13;18.40;99.90
19755;DHT22;10036;47.812;9.274;2022-08-19T11:44:57;18.40;99.90
19755;DHT22;10036;47.812;9.274;2022-08-19T11:47:24;18.30;99.90
19755;DHT22;10036;47.812;9.274;2022-08-19T11:49:51;18.20;99.90
19755;DHT22;10036;47.812;9.274;2022-08-19T11:52:20;18.20;99.90
19755;DHT22;10036;47.812;9.274;2022-08-19T11:54:47;18.20;99.90
19755;DHT22;10036;47.812;9.274;2022-08-19T11:57:14;18.20;99.90
19755;DHT22;10036;47.812;9.274;2022-08-19T11:59:42;18.20;99.90
19755;DHT22;10036;47.812;9.274;2022-08-19T12:02:13;18.20;99.90
19755;DHT22;10036;47.812;9.274;2022-08-19T12:04:41;18.20;99.90
19755;DHT22;10036;47.812;9.274;2022-08-19T12:07:07;18.30;99.90
19755;DHT22;10036;47.812;9.274;2022-08-19T12:09:36;18.30;99.90
19755;DHT22;10036;47.812;9.274;2022-08-19T12:12:05;18.30;99.90
19755;DHT22;10036;47.812;9.274;2022-08-19T12:14:32;18.30;99.90
19755;DHT22;10036;47.812;9.274;2022-08-19T12:16:59;18.30;99.90
19755;DHT22;10036;47.812;9.274;2022-08-19T12:19:27;18.30;99.90
19755;DHT22;10036;47.812;9.274;2022-08-19T12:21:58;18.40;99.90
19755;DHT22;10036;47.812;9.274;2022-08-19T12:24:27;18.40;99.90
19755;DHT22;10036;47.812;9.274;2022-08-19T12:26:56;18.40;99.90
19755;DHT22;10036;47.812;9.274;2022-08-19T12:29:24;18.50;99.90
19755;DHT22;10036;47.812;9.274;2022-08-19T12:31:54;18.50;99.90
19755;DHT22;10036;47.812;9.274;2022-08-19T12:34:28;18.50;99.90
19755;DHT22;10036;47.812;9.274;2022-08-19T12:36:56;18.40;99.90
19755;DHT22;10036;47.812;9.274;2022-08-19T12:39:24;18.50;99.90
19755;DHT22;10036;47.812;9.274;2022-08-19T12:41:52;18.50;99.90
19755;DHT22;10036;47.812;9.274;2022-08-19T12:44:20;18.60;99.90
19755;DHT22;10036;47.812;9.274;2022-08-19T12:46:47;18.60;99.90
19755;DHT22;10036;47.812;9.274;2022-08-19T12:49:15;18.60;99.90
19755;DHT22;10036;47.812;9.274;2022-08-19T12:51:42;18.60;99.90
19755;DHT22;10036;47.812;9.274;2022-08-19T12:54:09;18.70;99.90
19755;DHT22;10036;47.812;9.274;2022-08-19T12:56:38;18.70;99.90
19755;DHT22;10036;47.812;9.274;2022-08-19T12:59:06;18.60;99.90
19755;DHT22;10036;47.812;9.274;2022-08-19T13:01:37;18.60;99.90
19755;DHT22;10036;47.812;9.274;2022-08-19T13:04:07;18.60;99.90
19755;DHT22;10036;47.812;9.274;2022-08-19T13:06:34;18.60;99.90
19755;DHT22;10036;47.812;9.274;2022-08-19T13:09:02;18.70;99.90
19755;DHT22;10036;47.812;9.274;2022-08-19T13:11:29;18.60;99.90
19755;DHT22;10036;47.812;9.274;2022-08-19T13:13:59;18.70;99.90
19755;DHT22;10036;47.812;9.274;2022-08-19T13:16:27;18.70;99.90
19755;DHT22;10036;47.812;9.274;2022-08-19T13:18:56;18.70;99.90
19755;DHT22;10036;47.812;9.274;2022-08-19T13:21:26;18.80;99.90
19755;DHT22;10036;47.812;9.274;2022-08-19T13:23:55;18.80;99.90
19755;DHT22;10036;47.812;9.274;2022-08-19T13:26:22;18.80;99.90
19755;DHT22;10036;47.812;9.274;2022-08-19T13:28:49;19.00;99.90
19755;DHT22;10036;47.812;9.274;2022-08-19T13:31:36;19.00;99.90
19755;DHT22;10036;47.812;9.274;2022-08-19T13:34:31;19.00;99.90
19755;DHT22;10036;47.812;9.274;2022-08-19T13:36:59;19.10;99.90
19755;DHT22;10036;47.812;9.274;2022-08-19T13:39:28;19.10;99.90
19755;DHT22;10036;47.812;9.274;2022-08-19T13:41:58;19.00;99.90
19755;DHT22;10036;47.812;9.274;2022-08-19T13:44:26;19.00;99.90
19755;DHT22;10036;47.812;9.274;2022-08-19T13:46:55;19.00;99.90
19755;DHT22;10036;47.812;9.274;2022-08-19T13:49:29;19.00;99.90
19755;DHT22;10036;47.812;9.274;2022-08-19T13:51:56;19.00;99.90
19755;DHT22;10036;47.812;9.274;2022-08-19T13:54:23;19.00;99.90
19755;DHT22;10036;47.812;9.274;2022-08-19T13:56:50;19.00;99.90
19755;DHT22;10036;47.812;9.274;2022-08-19T13:59:17;19.00;99.90
19755;DHT22;10036;47.812;9.274;2022-08-19T14:01:44;19.00;99.90
19755;DHT22;10036;47.812;9.274;2022-08-19T14:04:11;18.90;99.90
19755;DHT22;10036;47.812;9.274;2022-08-19T14:06:40;18.80;99.90
19755;DHT22;10036;47.812;9.274;2022-08-19T14:09:06;18.80;99.90
19755;DHT22;10036;47.812;9.274;2022-08-19T14:11:33;18.80;99.90
19755;DHT22;10036;47.812;9.274;2022-08-19T14:14:00;18.70;99.90
19755;DHT22;10036;47.812;9.274;2022-08-19T14:16:27;18.80;99.90
19755;DHT22;10036;47.812;9.274;2022-08-19T14:18:55;18.70;99.90
19755;DHT22;10036;47.812;9.274;2022-08-19T14:21:24;18.70;99.90
19755;DHT22;10036;47.812;9.274;2022-08-19T14:23:52;18.80;99.90
19755;DHT22;10036;47.812;9.274;2022-08-19T14:26:22;18.80;99.90
19755;DHT22;10036;47.812;9.274;2022-08-19T14:28:50;18.80;99.90
19755;DHT22;10036;47.812;9.274;2022-08-19T14:31:18;18.80;99.90
19755;DHT22;10036;47.812;9.274;2022-08-19T14:33:47;18.80;99.90
19755;DHT22;10036;47.812;9.274;2022-08-19T14:36:14;18.90;99.90
19755;DHT22;10036;47.812;9.274;2022-08-19T14:38:42;18.80;99.90
19755;DHT22;10036;47.812;9.274;2022-08-19T14:41:13;18.80;99.90
19755;DHT22;10036;47.812;9.274;2022-08-19T14:43:42;18.80;99.90
19755;DHT22;10036;47.812;9.274;2022-08-19T14:46:12;18.80;99.90
19755;DHT22;10036;47.812;9.274;2022-08-19T14:48:39;18.90;99.90
19755;DHT22;10036;47.812;9.274;2022-08-19T14:51:06;18.90;99.90
19755;DHT22;10036;47.812;9.274;2022-08-19T14:53:33;18.90;99.90
19755;DHT22;10036;47.812;9.274;2022-08-19T14:56:00;18.80;99.90
19755;DHT22;10036;47.812;9.274;2022-08-19T14:58:28;18.90;99.90
19755;DHT22;10036;47.812;9.274;2022-08-19T15:00:57;18.90;99.90
19755;DHT22;10036;47.812;9.274;2022-08-19T15:03:24;18.90;99.90
19755;DHT22;10036;47.812;9.274;2022-08-19T15:05:51;18.80;99.90
19755;DHT22;10036;47.812;9.274;2022-08-19T15:08:18;18.80;99.90
19755;DHT22;10036;47.812;9.274;2022-08-19T15:10:50;18.80;99.90
19755;DHT22;10036;47.812;9.274;2022-08-19T15:13:17;18.80;99.90
19755;DHT22;10036;47.812;9.274;2022-08-19T15:15:45;18.80;99.90
19755;DHT22;10036;47.812;9.274;2022-08-19T15:18:13;18.80;99.90
19755;DHT22;10036;47.812;9.274;2022-08-19T15:20:40;18.80;99.90
19755;DHT22;10036;47.812;9.274;2022-08-19T15:23:07;18.90;99.90
19755;DHT22;10036;47.812;9.274;2022-08-19T15:25:34;18.90;99.90
19755;DHT22;10036;47.812;9.274;2022-08-19T15:28:01;19.00;99.90
19755;DHT22;10036;47.812;9.274;2022-08-19T15:30:29;19.00;99.90
19755;DHT22;10036;47.812;9.274;2022-08-19T15:32:58;19.00;99.90
19755;DHT22;10036;47.812;9.274;2022-08-19T15:35:25;19.00;99.90
19755;DHT22;10036;47.812;9.274;2022-08-19T15:37:53;18.90;99.90
19755;DHT22;10036;47.812;9.274;2022-08-19T15:40:22;18.80;99.90